Weather

Frazier Lake Airpark (1C9) NOTAMS
Aviation Weather
HOLLISTER MUNI, CA
Metar
KCVH 210055Z AUTO 24012KT 10SM CLR 22/09 A2989 RMK A01

00:55 UTC

Wind: 240° 12kt

Visibility: 10 SM

Sky:

Temp: 22 deg C / 71.6 deg F

Dewpoint: 9 deg C / 48.2 deg F

Pressure: 29.89 inHg

Available data for KSJC from the past 2 hours
SAN JOSE, CA
Metar
KSJC 210053Z 33007KT 10SM CLR 19/13 A2992 RMK AO2 SLP131 T01940133

00:53 UTC

Wind: 330° 7kt

Visibility: 10 SM

Sky:

Temp: 19 deg C / 66.2 deg F

Dewpoint: 13 deg C / 55.4 deg F

Pressure: 29.92 inHg

TAF
KSJC 202338Z 2100/2124 34009KT P6SM SKC FM210400 VRB03KT P6SM SKC FM210900 00000KT P6SM FEW008 FM211500 00000KT 2SM BR BKN007 TEMPO 2115/2119 1/2SM FG VV002 FM211900 VRB03KT P6SM FEW008 FM212100 31009KT P6SM FEW008
 

  • Latitude: -121.4626 Longitude: 36.9528 Elevation: 154

  • Extended Forecast Summary for Frazier Lake Airpark

  • Frazier Lake Airpark